Terminal Aerodrome Forecast
Issued by NWS

Home | Current Version | Previous Version | Text Only | Print | Product List | Glossary On
Versions: 1 2 3 4 5 6 7 8 9 10 11 12 13 14 15 16 17
000
FTUS45 KSLC 100520
TAFOGD
TAF
KOGD 100520Z 1006/1106 17011KT 6SM BR BKN070 OVC090
     FM101200 17010KT 6SM -RA BKN040 OVC070
     FM102100 23010KT 6SM -RA BKN050 OVC080=

USA.gov is the U.S. government's official web portal to all federal, state and local government web resources and services.